Time;durP1;ratioP1;P1;durP2;ratioP2;P2;SDS_P1;SDS_P2;PMS_P1;PMS_P2;Temp;Humidity;BMP_temperature;BMP_pressure;BME280_temperature;BME280_humidity;BME280_pressure;Samples;Min_cycle;Max_cycle;Signal;HPM_P1;HPM_P2
2023/12/23 00:01:39;;;;;;;4.73;1.53;;;22.60;72.10;;;;;;5055466;28;20645;-68
2023/12/23 00:04:06;;;;;;;4.30;1.40;;;22.50;72.40;;;;;;5059140;28;20197;-71
2023/12/23 00:06:34;;;;;;;4.17;1.50;;;22.40;72.20;;;;;;5059904;28;20218;-70
2023/12/23 00:09:01;;;;;;;4.13;1.70;;;22.60;72.00;;;;;;5059265;28;20183;-71
2023/12/23 00:11:28;;;;;;;4.13;1.37;;;22.80;69.90;;;;;;5057730;28;20176;-69
2023/12/23 00:13:56;;;;;;;4.60;1.20;;;23.20;70.10;;;;;;5051568;28;20287;-73
2023/12/23 00:16:24;;;;;;;4.53;1.20;;;23.50;68.80;;;;;;5062579;28;20180;-70
2023/12/23 00:18:51;;;;;;;4.03;1.20;;;23.30;68.70;;;;;;5054483;28;20191;-71
2023/12/23 00:21:19;;;;;;;3.80;1.53;;;23.50;69.40;;;;;;5055968;28;20172;-68
2023/12/23 00:23:46;;;;;;;4.10;1.40;;;24.20;67.80;;;;;;5055995;28;20230;-68
2023/12/23 00:26:13;;;;;;;6.30;1.67;;;24.70;66.20;;;;;;5048194;28;20255;-68
2023/12/23 00:28:41;;;;;;;6.33;1.73;;;25.10;65.50;;;;;;5050462;28;20182;-68
2023/12/23 00:31:08;;;;;;;7.60;1.30;;;25.40;65.00;;;;;;5061041;28;20197;-68
2023/12/23 00:33:35;;;;;;;5.47;1.20;;;25.80;63.30;;;;;;5050571;28;20184;-73
2023/12/23 00:36:03;;;;;;;4.83;1.20;;;26.00;60.70;;;;;;5054749;28;20183;-73
2023/12/23 00:38:30;;;;;;;4.30;0.90;;;26.10;61.00;;;;;;5051516;28;20673;-69
2023/12/23 00:40:58;;;;;;;4.73;1.10;;;26.10;60.70;;;;;;5057838;28;20281;-66
2023/12/23 00:43:25;;;;;;;2.63;0.97;;;26.40;59.90;;;;;;5050882;28;20196;-69
2023/12/23 00:45:52;;;;;;;2.43;1.20;;;25.70;60.90;;;;;;5036111;28;20181;-69
2023/12/23 00:48:19;;;;;;;3.17;0.83;;;25.80;61.10;;;;;;5051022;28;20187;-69
2023/12/23 00:50:47;;;;;;;4.37;1.07;;;26.00;61.00;;;;;;5051936;28;20229;-68
2023/12/23 00:53:14;;;;;;;1.33;0.90;;;26.20;60.50;;;;;;5055419;28;20195;-68
2023/12/23 00:55:41;;;;;;;3.23;0.83;;;25.90;61.00;;;;;;5052333;28;20216;-67
2023/12/23 00:58:09;;;;;;;2.73;0.80;;;25.40;61.70;;;;;;5053999;28;20201;-68
2023/12/23 01:00:37;;;;;;;4.73;1.73;;;25.70;61.10;;;;;;5062757;28;20266;-68
2023/12/23 01:03:05;;;;;;;3.70;1.00;;;25.90;60.50;;;;;;5054155;28;20193;-67
2023/12/23 01:05:32;;;;;;;2.60;0.90;;;26.20;59.40;;;;;;5061358;28;20212;-68
2023/12/23 01:07:59;;;;;;;5.30;1.50;;;26.10;58.90;;;;;;5057881;28;20194;-68
2023/12/23 01:10:27;;;;;;;4.17;1.30;;;25.80;59.70;;;;;;5062779;28;20608;-68
2023/12/23 01:12:54;;;;;;;4.93;1.10;;;25.30;60.40;;;;;;5056155;28;20195;-67
2023/12/23 01:15:22;;;;;;;3.47;1.50;;;25.10;61.60;;;;;;5057989;28;20361;-68
2023/12/23 01:17:49;;;;;;;4.37;1.37;;;24.90;62.80;;;;;;5061663;28;20600;-69
2023/12/23 01:20:16;;;;;;;5.97;1.20;;;25.00;62.60;;;;;;5059121;28;20274;-67
2023/12/23 01:22:44;;;;;;;3.93;1.00;;;25.00;62.40;;;;;;5064784;28;20179;-68
2023/12/23 01:25:11;;;;;;;5.87;1.23;;;25.00;61.70;;;;;;5059362;28;20233;-68
2023/12/23 01:27:39;;;;;;;3.53;1.20;;;25.30;61.60;;;;;;5052506;28;20676;-68
2023/12/23 01:30:07;;;;;;;3.03;1.10;;;25.70;60.20;;;;;;5062024;28;20286;-68
2023/12/23 01:32:34;;;;;;;4.33;1.30;;;26.40;59.00;;;;;;5067383;28;20198;-68
2023/12/23 01:35:01;;;;;;;4.13;1.20;;;26.60;56.90;;;;;;5055050;28;20551;-70
2023/12/23 01:37:31;;;;;;;7.10;1.13;;;26.70;56.00;;;;;;5063072;28;20207;-68
2023/12/23 01:39:59;;;;;;;4.13;1.20;;;26.90;56.30;;;;;;5037586;28;20633;-68
2023/12/23 01:42:26;;;;;;;6.60;1.20;;;26.50;55.40;;;;;;5063499;28;20527;-68
2023/12/23 01:44:54;;;;;;;2.43;0.90;;;26.60;57.00;;;;;;5065509;28;20183;-69
2023/12/23 01:47:21;;;;;;;4.53;1.07;;;26.70;56.40;;;;;;5063476;28;20240;-68
2023/12/23 01:49:49;;;;;;;3.60;0.97;;;26.50;56.40;;;;;;5061584;28;20183;-68
2023/12/23 01:52:17;;;;;;;3.77;1.27;;;26.20;56.70;;;;;;5059221;28;20273;-68
2023/12/23 01:54:45;;;;;;;5.30;1.33;;;26.30;56.20;;;;;;5064820;28;20215;-67
2023/12/23 01:57:12;;;;;;;6.77;1.40;;;26.60;55.60;;;;;;5055313;28;20279;-69
2023/12/23 01:59:40;;;;;;;7.93;1.53;;;27.00;54.80;;;;;;5061184;28;20199;-69
2023/12/23 02:02:12;;;;;;;3.27;1.20;;;26.90;54.60;;;;;;5064524;28;20179;-69
2023/12/23 02:04:39;;;;;;;3.67;1.17;;;27.00;54.30;;;;;;5050731;28;20180;-68
2023/12/23 02:07:13;;;;;;;4.80;1.20;;;26.60;54.60;;;;;;5061357;28;20186;-69
2023/12/23 02:09:40;;;;;;;3.57;0.90;;;26.20;55.20;;;;;;5059516;28;20236;-67
2023/12/23 02:12:43;;;;;;;4.33;0.87;;;26.00;56.10;;;;;;5061263;28;20193;-67
2023/12/23 02:15:14;;;;;;;4.03;0.90;;;26.20;55.60;;;;;;5051726;28;20234;-67
2023/12/23 02:17:42;;;;;;;2.90;1.00;;;26.10;55.60;;;;;;5062832;28;20176;-67
2023/12/23 02:20:09;;;;;;;3.37;1.17;;;26.50;55.90;;;;;;5063746;28;20183;-66
2023/12/23 02:22:38;;;;;;;4.10;1.13;;;26.70;55.50;;;;;;5059178;28;20179;-67
2023/12/23 02:25:06;;;;;;;4.83;1.07;;;26.90;54.30;;;;;;5062281;28;20234;-67
2023/12/23 02:27:45;;;;;;;4.03;1.30;;;26.90;54.20;;;;;;5051797;28;20291;-67
2023/12/23 02:30:14;;;;;;;4.73;1.10;;;26.60;54.90;;;;;;5060152;28;20548;-69
2023/12/23 02:32:43;;;;;;;3.77;0.90;;;27.00;54.10;;;;;;5049401;28;20182;-68
2023/12/23 02:35:12;;;;;;;2.90;1.00;;;27.20;53.30;;;;;;5061075;28;20258;-67
2023/12/23 02:37:41;;;;;;;5.30;1.10;;;27.50;52.10;;;;;;5061618;28;20187;-67
2023/12/23 02:40:09;;;;;;;3.63;1.30;;;27.60;51.70;;;;;;5060374;28;20220;-67
2023/12/23 02:42:36;;;;;;;3.87;1.07;;;27.60;52.30;;;;;;5053091;28;20638;-67
2023/12/23 02:45:04;;;;;;;4.27;1.10;;;27.80;52.10;;;;;;5056087;28;20184;-67
2023/12/23 02:47:31;;;;;;;4.60;1.13;;;26.90;52.60;;;;;;5051557;28;20255;-67
2023/12/23 02:49:58;;;;;;;4.93;1.17;;;26.50;54.00;;;;;;5055501;28;20245;-66
2023/12/23 02:52:26;;;;;;;5.40;1.30;;;26.30;55.10;;;;;;5049929;28;20195;-67
2023/12/23 02:54:53;;;;;;;4.63;1.47;;;27.00;54.60;;;;;;5058923;28;20687;-68
2023/12/23 02:57:21;;;;;;;5.17;1.47;;;27.50;53.70;;;;;;5062465;28;20186;-67
2023/12/23 02:59:48;;;;;;;2.27;1.00;;;27.70;52.00;;;;;;5056408;28;20184;-69
2023/12/23 03:02:16;;;;;;;3.63;1.37;;;27.90;52.00;;;;;;5052526;28;20682;-67
2023/12/23 03:04:43;;;;;;;3.63;1.03;;;27.90;51.60;;;;;;5056548;28;20669;-73
2023/12/23 03:07:10;;;;;;;2.97;0.93;;;27.90;52.20;;;;;;5053659;28;20320;-72
2023/12/23 03:09:38;;;;;;;3.07;1.10;;;27.50;52.40;;;;;;5063815;28;20582;-67
2023/12/23 03:12:05;;;;;;;3.43;1.00;;;27.30;52.70;;;;;;5057466;28;20191;-67
2023/12/23 03:14:33;;;;;;;3.77;1.20;;;27.40;52.40;;;;;;5055380;28;20200;-67
2023/12/23 03:17:00;;;;;;;5.47;1.20;;;27.50;52.00;;;;;;5057422;28;20231;-66
2023/12/23 03:19:27;;;;;;;2.83;1.10;;;27.80;52.20;;;;;;5054308;28;20274;-68
2023/12/23 03:21:54;;;;;;;3.30;1.17;;;28.30;50.90;;;;;;5049998;28;20337;-68
2023/12/23 03:24:22;;;;;;;3.67;1.00;;;28.30;51.20;;;;;;5042986;28;20275;-68
2023/12/23 03:26:49;;;;;;;5.37;1.57;;;28.70;49.90;;;;;;5046122;28;20184;-67
2023/12/23 03:29:16;;;;;;;5.10;1.37;;;28.80;50.70;;;;;;5031589;28;20668;-68
2023/12/23 03:31:44;;;;;;;3.23;1.00;;;28.10;50.50;;;;;;5051173;28;20187;-69
2023/12/23 03:34:11;;;;;;;5.97;1.50;;;27.60;52.60;;;;;;5051061;28;20211;-68
2023/12/23 03:36:38;;;;;;;4.43;1.30;;;27.10;53.60;;;;;;5051884;28;20188;-67
2023/12/23 03:39:06;;;;;;;5.13;1.33;;;27.60;53.20;;;;;;5052074;28;20188;-67
2023/12/23 03:41:33;;;;;;;4.70;1.30;;;27.30;53.50;;;;;;5049839;28;20701;-67
2023/12/23 03:44:00;;;;;;;4.73;1.27;;;26.80;53.70;;;;;;5051651;28;20202;-69
2023/12/23 03:46:28;;;;;;;6.40;1.60;;;27.40;53.90;;;;;;5055489;28;20183;-70
2023/12/23 03:48:55;;;;;;;3.30;1.27;;;28.20;52.00;;;;;;5047910;28;20180;-67
2023/12/23 03:51:23;;;;;;;6.77;1.43;;;28.30;51.50;;;;;;5050679;28;20180;-68
2023/12/23 03:53:51;;;;;;;4.40;1.20;;;28.20;50.40;;;;;;5040929;28;20188;-66
2023/12/23 03:56:18;;;;;;;7.20;1.20;;;28.50;49.70;;;;;;5043300;28;20656;-69
2023/12/23 03:58:46;;;;;;;3.97;0.97;;;28.90;49.80;;;;;;5061318;28;20190;-67
2023/12/23 04:01:15;;;;;;;5.63;1.15;;;29.30;49.00;;;;;;5049102;28;20183;-69
2023/12/23 04:03:43;;;;;;;4.53;1.20;;;29.70;47.90;;;;;;5055546;28;20186;-66
2023/12/23 04:06:11;;;;;;;2.85;0.82;;;29.40;47.70;;;;;;5063408;28;20661;-66
2023/12/23 04:08:41;;;;;;;7.73;1.50;;;29.40;48.10;;;;;;5037961;28;20184;-66
2023/12/23 04:11:08;;;;;;;6.37;1.13;;;29.00;49.10;;;;;;5049767;28;20585;-66
2023/12/23 04:13:37;;;;;;;3.30;0.80;;;29.00;48.50;;;;;;5056071;28;20190;-67
2023/12/23 04:16:05;;;;;;;5.17;1.10;;;29.50;48.70;;;;;;5058326;28;20200;-67
2023/12/23 04:18:32;;;;;;;4.43;1.00;;;29.00;48.60;;;;;;5055755;28;20191;-67
2023/12/23 04:21:00;;;;;;;2.58;0.80;;;29.10;48.90;;;;;;5050225;28;20187;-67
2023/12/23 04:23:27;;;;;;;3.38;1.10;;;29.30;47.90;;;;;;5062480;28;20537;-68
2023/12/23 04:25:54;;;;;;;4.63;1.00;;;29.70;47.60;;;;;;5051225;28;20207;-66
2023/12/23 04:28:24;;;;;;;3.03;1.00;;;29.30;48.00;;;;;;5056189;28;20183;-67
2023/12/23 04:30:56;;;;;;;2.20;0.80;;;29.20;48.50;;;;;;5050111;28;20661;-67
2023/12/23 04:33:24;;;;;;;6.88;1.13;;;28.80;48.40;;;;;;5053773;28;20274;-68
2023/12/23 04:35:51;;;;;;;2.67;1.10;;;28.40;49.60;;;;;;5049956;28;20227;-66
2023/12/23 04:38:18;;;;;;;3.53;1.00;;;27.80;51.60;;;;;;5051015;28;20184;-66
2023/12/23 04:40:46;;;;;;;3.17;0.90;;;28.60;49.90;;;;;;5061115;28;20242;-65
2023/12/23 04:43:13;;;;;;;2.33;0.87;;;29.00;49.50;;;;;;5062790;28;20188;-69
2023/12/23 04:45:40;;;;;;;3.43;0.93;;;29.00;47.30;;;;;;5067199;28;20187;-67
2023/12/23 04:48:08;;;;;;;2.37;0.93;;;28.50;48.60;;;;;;5059173;28;20627;-68
2023/12/23 04:50:35;;;;;;;2.27;1.00;;;28.50;48.90;;;;;;5058416;28;20211;-66
2023/12/23 04:53:02;;;;;;;6.70;1.23;;;28.80;48.90;;;;;;5052236;28;20669;-66
2023/12/23 04:55:30;;;;;;;2.63;0.80;;;28.90;48.40;;;;;;5043697;28;20291;-66
2023/12/23 04:57:57;;;;;;;3.50;0.97;;;29.30;48.00;;;;;;5047978;28;20549;-67
2023/12/23 05:00:24;;;;;;;2.90;0.97;;;28.80;48.50;;;;;;5060175;28;20191;-67
2023/12/23 05:02:52;;;;;;;5.03;1.07;;;29.00;48.10;;;;;;5062435;28;20797;-68
2023/12/23 05:05:19;;;;;;;1.47;0.70;;;28.80;47.70;;;;;;5055043;28;20515;-68
2023/12/23 05:07:46;;;;;;;5.00;0.80;;;28.60;48.10;;;;;;5057075;28;20190;-66
2023/12/23 05:10:14;;;;;;;2.60;0.80;;;28.00;48.80;;;;;;5058357;28;20183;-68
2023/12/23 05:12:41;;;;;;;2.27;0.90;;;27.60;50.30;;;;;;5061900;28;20525;-68
2023/12/23 05:15:09;;;;;;;3.83;1.10;;;27.10;51.80;;;;;;5060276;28;20306;-68
2023/12/23 05:17:36;;;;;;;1.13;0.80;;;28.10;48.80;;;;;;5063088;28;20215;-74
2023/12/23 05:20:04;;;;;;;3.23;0.97;;;28.30;47.90;;;;;;5059163;28;20896;-68
2023/12/23 05:22:32;;;;;;;2.07;0.80;;;27.30;51.00;;;;;;5057852;28;20237;-71
2023/12/23 05:24:59;;;;;;;2.83;0.73;;;26.70;52.20;;;;;;5047172;28;20184;-68
2023/12/23 05:27:27;;;;;;;4.70;1.30;;;26.60;53.70;;;;;;5056930;28;20281;-74
2023/12/23 05:29:57;;;;;;;1.80;1.00;;;26.60;53.40;;;;;;5057055;28;20410;-71
2023/12/23 05:32:25;;;;;;;3.77;0.80;;;26.60;53.90;;;;;;5065437;28;20207;-69
2023/12/23 05:34:52;;;;;;;5.20;1.20;;;26.60;54.70;;;;;;5052742;28;20212;-70
2023/12/23 05:37:22;;;;;;;2.23;0.80;;;27.30;52.90;;;;;;5035979;28;20181;-71
2023/12/23 05:39:49;;;;;;;3.13;0.93;;;27.90;52.00;;;;;;5047391;28;20198;-67
2023/12/23 05:42:17;;;;;;;3.37;0.87;;;28.70;49.40;;;;;;5055308;28;20184;-67
2023/12/23 05:44:44;;;;;;;3.70;0.80;;;28.30;47.90;;;;;;5052636;28;20203;-66
2023/12/23 05:47:12;;;;;;;6.03;1.33;;;28.80;48.30;;;;;;5055519;28;20193;-70
2023/12/23 05:49:39;;;;;;;8.13;1.43;;;29.10;48.20;;;;;;5062991;28;20211;-71
2023/12/23 05:52:06;;;;;;;2.37;0.80;;;28.80;49.50;;;;;;5061765;28;20241;-67
2023/12/23 05:54:34;;;;;;;7.87;1.17;;;28.50;49.80;;;;;;5041693;28;20239;-67
2023/12/23 05:57:01;;;;;;;4.87;1.03;;;28.00;51.30;;;;;;5056619;28;20172;-67
2023/12/23 05:59:29;;;;;;;3.73;1.40;;;28.00;52.40;;;;;;5054803;28;20184;-67
2023/12/23 06:01:56;;;;;;;3.47;1.00;;;27.80;52.80;;;;;;5056121;28;20190;-67
2023/12/23 06:04:23;;;;;;;3.00;1.00;;;27.20;53.70;;;;;;5051125;28;20255;-67
2023/12/23 06:06:51;;;;;;;2.67;1.13;;;27.00;54.40;;;;;;5061790;28;20191;-69
2023/12/23 06:09:18;;;;;;;4.97;1.10;;;26.40;55.70;;;;;;5059857;28;20540;-67
2023/12/23 06:11:45;;;;;;;4.03;1.00;;;25.70;58.00;;;;;;5053996;28;20202;-68
2023/12/23 06:14:12;;;;;;;3.63;0.93;;;25.50;58.40;;;;;;5065015;28;20211;-68
2023/12/23 06:16:40;;;;;;;3.90;1.00;;;25.40;59.30;;;;;;5058070;28;20713;-69
2023/12/23 06:19:08;;;;;;;5.50;1.10;;;25.40;60.20;;;;;;5062931;28;20187;-66
2023/12/23 06:21:36;;;;;;;10.27;1.67;;;25.60;59.40;;;;;;5058686;28;20187;-66
2023/12/23 06:24:03;;;;;;;5.50;1.03;;;25.30;60.20;;;;;;5063045;28;20175;-67
2023/12/23 06:26:30;;;;;;;4.87;1.40;;;25.00;60.60;;;;;;5066449;28;20545;-71
2023/12/23 06:28:58;;;;;;;3.57;1.07;;;24.90;61.80;;;;;;5056874;28;20176;-66
2023/12/23 06:31:26;;;;;;;3.67;0.83;;;24.70;62.00;;;;;;5060375;28;20188;-66
2023/12/23 06:33:53;;;;;;;4.07;1.03;;;25.10;61.50;;;;;;5050783;28;20187;-65
2023/12/23 06:36:20;;;;;;;7.67;1.30;;;24.70;62.40;;;;;;5062409;28;20208;-66
2023/12/23 06:38:48;;;;;;;4.87;1.20;;;24.80;62.40;;;;;;5063279;28;20672;-66
2023/12/23 06:41:15;;;;;;;6.47;1.33;;;24.90;62.90;;;;;;5059710;28;20242;-68
2023/12/23 06:43:43;;;;;;;6.90;1.53;;;24.80;63.20;;;;;;5063500;28;20206;-66
2023/12/23 06:46:11;;;;;;;2.67;1.10;;;24.60;63.20;;;;;;5067571;28;20183;-67
2023/12/23 06:48:39;;;;;;;6.30;1.37;;;24.40;64.10;;;;;;5039543;28;20193;-70
2023/12/23 06:51:07;;;;;;;6.90;1.50;;;24.30;64.80;;;;;;5055728;28;20192;-66
2023/12/23 06:53:35;;;;;;;6.10;1.80;;;24.10;65.10;;;;;;5054083;28;20196;-66
2023/12/23 06:56:05;;;;;;;5.17;1.73;;;23.80;65.60;;;;;;5066245;28;20242;-67
2023/12/23 06:58:33;;;;;;;15.57;8.67;;;23.80;67.10;;;;;;5065829;28;20542;-66
2023/12/23 07:01:00;;;;;;;7.80;1.83;;;23.80;66.90;;;;;;5063557;28;20172;-68
2023/12/23 07:03:27;;;;;;;3.73;1.23;;;23.80;67.30;;;;;;5053914;28;20184;-71
2023/12/23 07:05:55;;;;;;;7.97;1.43;;;23.70;67.50;;;;;;5061933;28;20195;-67
2023/12/23 07:08:22;;;;;;;11.27;2.33;;;23.70;67.70;;;;;;5058132;28;20818;-66
2023/12/23 07:10:52;;;;;;;8.63;1.40;;;23.80;68.40;;;;;;5066502;28;20187;-66
2023/12/23 07:13:20;;;;;;;11.40;2.27;;;23.90;68.10;;;;;;5062852;28;20172;-68
2023/12/23 07:15:47;;;;;;;4.80;1.50;;;23.90;68.60;;;;;;5058329;28;20226;-68
2023/12/23 07:18:14;;;;;;;8.90;1.53;;;24.00;67.70;;;;;;5065735;28;20258;-67
2023/12/23 07:20:42;;;;;;;8.50;1.60;;;23.70;68.40;;;;;;5055622;28;20218;-68
2023/12/23 07:23:09;;;;;;;6.37;1.80;;;23.70;68.40;;;;;;5058596;28;20190;-70
2023/12/23 07:25:37;;;;;;;5.27;1.43;;;23.60;69.20;;;;;;5056546;28;20192;-69
2023/12/23 07:28:04;;;;;;;5.63;1.23;;;23.60;69.30;;;;;;5070638;28;20205;-67
2023/12/23 07:30:31;;;;;;;6.83;1.80;;;23.40;68.90;;;;;;5047969;28;20271;-71
2023/12/23 07:32:59;;;;;;;4.70;1.23;;;23.40;69.30;;;;;;5056721;28;20313;-66
2023/12/23 07:35:29;;;;;;;7.27;2.00;;;23.20;69.40;;;;;;5066049;28;20218;-69
2023/12/23 07:37:57;;;;;;;6.43;1.57;;;23.20;69.80;;;;;;5064064;28;20183;-69
2023/12/23 07:40:24;;;;;;;8.07;1.83;;;23.10;69.50;;;;;;5056910;28;20218;-68
2023/12/23 07:42:51;;;;;;;8.43;1.90;;;23.10;70.10;;;;;;5045903;28;20184;-70
2023/12/23 07:45:19;;;;;;;7.80;1.83;;;22.90;69.90;;;;;;5050407;28;20275;-70
2023/12/23 07:47:47;;;;;;;7.67;2.03;;;23.00;70.20;;;;;;5046323;28;20672;-69
2023/12/23 07:50:14;;;;;;;12.10;2.80;;;23.00;70.10;;;;;;5048798;28;20231;-71
2023/12/23 07:52:42;;;;;;;7.27;2.87;;;23.00;70.30;;;;;;5059072;28;20202;-69
2023/12/23 07:55:09;;;;;;;10.60;2.93;;;23.00;70.00;;;;;;5060088;28;20356;-67
2023/12/23 07:57:36;;;;;;;6.30;1.80;;;23.00;70.20;;;;;;5055833;28;20642;-71
2023/12/23 08:00:06;;;;;;;6.97;1.80;;;23.10;69.90;;;;;;5064034;28;20179;-72
2023/12/23 08:02:33;;;;;;;7.87;1.90;;;23.00;70.00;;;;;;5059665;28;20272;-67
2023/12/23 08:05:01;;;;;;;6.97;1.80;;;22.90;70.20;;;;;;5054127;28;20175;-75
2023/12/23 08:07:28;;;;;;;9.20;1.70;;;22.90;70.80;;;;;;5057128;28;20207;-68
2023/12/23 08:09:56;;;;;;;8.90;1.60;;;22.80;70.80;;;;;;5067197;28;20640;-68
2023/12/23 08:12:23;;;;;;;5.63;1.40;;;22.80;70.50;;;;;;5045084;28;20200;-68
2023/12/23 08:14:50;;;;;;;10.27;1.67;;;22.80;70.50;;;;;;5070885;28;20203;-65
2023/12/23 08:17:17;;;;;;;6.53;1.83;;;22.80;70.60;;;;;;5041574;28;20183;-70
2023/12/23 08:19:45;;;;;;;8.33;1.83;;;22.70;70.80;;;;;;5058745;28;20191;-66
2023/12/23 08:22:12;;;;;;;9.90;1.70;;;22.70;70.90;;;;;;5060871;28;20534;-69
2023/12/23 08:24:39;;;;;;;8.80;1.60;;;22.60;71.20;;;;;;5055571;28;20242;-68
2023/12/23 08:27:07;;;;;;;8.43;1.57;;;22.50;71.30;;;;;;5058622;28;20298;-66
2023/12/23 08:29:35;;;;;;;11.13;1.70;;;22.50;71.90;;;;;;5049602;28;20189;-65
2023/12/23 08:32:02;;;;;;;6.07;1.33;;;22.50;71.40;;;;;;5054426;28;20190;-69
2023/12/23 08:34:30;;;;;;;8.83;1.50;;;22.40;71.60;;;;;;5051605;28;20294;-66
2023/12/23 08:36:57;;;;;;;6.93;1.53;;;22.40;71.70;;;;;;5050804;28;20716;-68
2023/12/23 08:39:31;;;;;;;6.93;2.10;;;22.40;71.90;;;;;;5060610;28;20614;-67
2023/12/23 08:41:58;;;;;;;5.17;1.53;;;22.30;72.10;;;;;;5053552;28;20223;-65
2023/12/23 08:44:26;;;;;;;6.50;1.70;;;22.30;72.10;;;;;;5054547;28;20286;-65
2023/12/23 08:46:53;;;;;;;8.87;1.60;;;22.30;72.70;;;;;;5062922;28;20179;-66
2023/12/23 08:49:20;;;;;;;5.40;1.53;;;22.30;72.30;;;;;;5055404;28;20189;-65
2023/12/23 08:51:47;;;;;;;4.97;1.50;;;22.20;72.70;;;;;;5054314;28;20188;-66
2023/12/23 08:54:15;;;;;;;6.20;1.23;;;22.20;72.80;;;;;;5054419;28;20250;-67
2023/12/23 08:56:42;;;;;;;10.67;1.90;;;22.10;72.70;;;;;;5057675;28;20207;-65
2023/12/23 08:59:09;;;;;;;7.43;1.60;;;22.00;73.20;;;;;;5054907;28;20543;-66
2023/12/23 09:01:37;;;;;;;6.63;1.30;;;22.10;73.50;;;;;;5048056;28;20273;-67
2023/12/23 09:04:04;;;;;;;9.83;1.67;;;22.00;73.40;;;;;;5061194;28;20191;-68
2023/12/23 09:06:31;;;;;;;11.47;1.93;;;22.00;73.80;;;;;;5054700;28;20275;-67
2023/12/23 09:08:59;;;;;;;6.27;1.47;;;22.00;73.50;;;;;;5057276;28;20192;-67
2023/12/23 09:11:26;;;;;;;6.83;1.40;;;22.00;73.80;;;;;;5054182;28;20657;-66
2023/12/23 09:13:53;;;;;;;3.90;1.40;;;21.90;73.60;;;;;;5052224;28;20271;-66
2023/12/23 09:16:21;;;;;;;4.87;1.30;;;21.90;73.70;;;;;;5057222;28;20203;-66
2023/12/23 09:18:48;;;;;;;8.27;1.80;;;21.90;73.60;;;;;;5052730;28;20184;-67
2023/12/23 09:21:16;;;;;;;5.00;1.20;;;21.90;73.70;;;;;;5051898;28;20180;-66
2023/12/23 09:23:43;;;;;;;7.20;1.50;;;21.80;73.80;;;;;;5056021;28;20214;-66
2023/12/23 09:26:11;;;;;;;9.37;1.43;;;21.80;74.10;;;;;;5048350;28;20664;-66
2023/12/23 09:28:39;;;;;;;4.87;1.63;;;21.80;74.30;;;;;;5056419;28;20204;-65
2023/12/23 09:31:06;;;;;;;8.03;1.63;;;21.80;74.20;;;;;;5053385;28;20273;-65
2023/12/23 09:33:33;;;;;;;7.13;1.50;;;21.80;74.60;;;;;;5052625;28;20650;-65
2023/12/23 09:36:00;;;;;;;10.27;2.27;;;21.70;74.40;;;;;;5053670;28;20594;-66
2023/12/23 09:38:28;;;;;;;7.53;1.43;;;21.70;74.50;;;;;;5052680;28;20190;-65
2023/12/23 09:40:55;;;;;;;7.47;1.37;;;21.60;74.60;;;;;;5047117;28;20227;-65
2023/12/23 09:43:23;;;;;;;7.67;1.40;;;21.60;74.70;;;;;;5050765;28;20211;-67
2023/12/23 09:45:52;;;;;;;8.33;1.40;;;21.60;74.80;;;;;;5052041;28;20184;-68
2023/12/23 09:48:19;;;;;;;9.47;1.80;;;21.60;74.70;;;;;;5047282;28;20180;-67
2023/12/23 09:50:47;;;;;;;7.27;2.13;;;21.60;75.00;;;;;;5050083;28;20630;-66
2023/12/23 09:53:21;;;;;;;9.30;1.70;;;21.60;75.20;;;;;;5054000;28;20704;-66
2023/12/23 09:55:48;;;;;;;7.03;1.30;;;21.70;75.20;;;;;;5052456;28;20235;-68
2023/12/23 09:58:16;;;;;;;7.40;1.60;;;21.70;75.00;;;;;;5052317;28;20184;-67
2023/12/23 10:00:45;;;;;;;9.47;1.60;;;21.60;74.90;;;;;;5053406;28;20196;-69
2023/12/23 10:03:13;;;;;;;8.33;1.40;;;21.60;75.20;;;;;;5054712;28;20180;-69
2023/12/23 10:05:44;;;;;;;10.17;1.50;;;21.60;75.20;;;;;;5051078;28;20196;-66
2023/12/23 10:08:13;;;;;;;4.50;1.40;;;21.60;75.50;;;;;;5048286;28;20188;-66
2023/12/23 10:10:40;;;;;;;7.57;1.63;;;21.60;75.50;;;;;;5051189;28;20189;-71
2023/12/23 10:13:08;;;;;;;8.67;1.93;;;21.60;75.60;;;;;;5060110;28;20196;-74
2023/12/23 10:15:38;;;;;;;7.53;1.37;;;21.70;75.60;;;;;;5052094;28;20251;-72
2023/12/23 10:18:06;;;;;;;8.27;2.00;;;21.70;75.60;;;;;;5043970;28;20183;-71
2023/12/23 10:20:33;;;;;;;7.80;1.93;;;21.80;75.80;;;;;;5051779;28;20237;-69
2023/12/23 10:23:00;;;;;;;7.53;1.70;;;21.80;75.70;;;;;;5052713;28;20187;-68
2023/12/23 10:25:28;;;;;;;8.00;1.73;;;21.80;75.70;;;;;;5053991;28;20645;-69
2023/12/23 10:28:09;;;;;;;7.30;1.60;;;21.80;75.60;;;;;;5060983;28;20184;-74
2023/12/23 10:30:40;;;;;;;5.57;1.60;;;21.80;75.60;;;;;;5056006;28;20200;-67
2023/12/23 10:33:09;;;;;;;5.90;1.70;;;21.70;75.80;;;;;;5044967;28;20316;-72
2023/12/23 10:35:45;;;;;;;8.80;2.07;;;21.70;75.70;;;;;;5058602;28;20219;-73
2023/12/23 10:38:21;;;;;;;8.30;1.90;;;21.70;75.70;;;;;;5048742;28;20183;-74
2023/12/23 10:40:59;;;;;;;11.37;1.93;;;21.60;75.90;;;;;;5053810;28;20693;-71
2023/12/23 10:43:27;;;;;;;4.30;1.57;;;21.60;75.80;;;;;;5052002;28;20182;-75
2023/12/23 10:45:58;;;;;;;8.67;2.03;;;21.60;76.00;;;;;;5052162;28;20188;-70
2023/12/23 10:48:28;;;;;;;7.20;1.73;;;21.70;76.30;;;;;;5052984;28;20234;-70
2023/12/23 10:50:58;;;;;;;6.80;1.53;;;21.70;76.20;;;;;;5046487;28;20187;-70
2023/12/23 10:53:26;;;;;;;4.93;1.37;;;21.60;76.30;;;;;;5038046;28;20184;-69
2023/12/23 10:55:55;;;;;;;8.87;1.70;;;21.60;76.20;;;;;;5047579;28;20227;-68
2023/12/23 10:58:22;;;;;;;7.57;1.60;;;21.60;76.40;;;;;;5054663;28;20626;-71
2023/12/23 11:00:53;;;;;;;5.57;1.60;;;21.60;76.60;;;;;;5051432;28;20192;-70
2023/12/23 11:03:22;;;;;;;10.60;1.40;;;21.60;76.60;;;;;;5049935;28;20208;-70
2023/12/23 11:05:50;;;;;;;5.57;1.80;;;21.70;76.60;;;;;;5058888;28;20238;-73
2023/12/23 11:08:23;;;;;;;8.13;1.27;;;21.70;76.80;;;;;;5039120;28;20642;-72
2023/12/23 11:10:51;;;;;;;7.73;1.50;;;21.70;76.70;;;;;;5044117;28;20173;-69
2023/12/23 11:13:20;;;;;;;10.57;1.60;;;21.60;76.60;;;;;;5045692;28;20628;-74
2023/12/23 11:15:48;;;;;;;7.03;1.27;;;21.60;76.80;;;;;;5056708;28;20301;-70
2023/12/23 11:18:16;;;;;;;6.93;1.70;;;21.60;76.80;;;;;;5053602;28;20176;-71
2023/12/23 11:20:45;;;;;;;8.70;1.30;;;21.60;76.70;;;;;;5053829;28;20192;-68
2023/12/23 11:23:32;;;;;;;10.10;1.60;;;21.60;76.90;;;;;;5046036;28;20172;-68
2023/12/23 11:26:00;;;;;;;8.43;1.67;;;21.60;76.90;;;;;;5046704;28;20198;-69
2023/12/23 11:28:29;;;;;;;10.07;1.60;;;21.60;77.10;;;;;;5050460;28;20276;-72
2023/12/23 11:30:58;;;;;;;4.37;1.50;;;21.60;77.10;;;;;;5056656;28;20530;-68
2023/12/23 11:33:28;;;;;;;8.20;1.70;;;21.50;77.30;;;;;;5058371;28;20207;-71
2023/12/23 11:36:00;;;;;;;9.53;1.90;;;21.50;77.50;;;;;;5051419;28;20215;-67
2023/12/23 11:38:46;;;;;;;5.13;1.57;;;21.50;77.30;;;;;;5049510;28;20188;-69
2023/12/23 11:41:14;;;;;;;8.23;1.50;;;21.50;77.60;;;;;;5050029;28;20224;-71
2023/12/23 11:43:46;;;;;;;3.30;1.20;;;21.50;77.60;;;;;;5044666;28;20207;-71
2023/12/23 11:46:14;;;;;;;8.03;1.40;;;21.40;77.60;;;;;;5053120;28;20601;-66
2023/12/23 11:48:41;;;;;;;7.77;1.60;;;21.40;77.70;;;;;;5047314;28;20298;-68
2023/12/23 11:51:12;;;;;;;7.13;1.33;;;21.50;77.70;;;;;;5045356;28;20180;-71
2023/12/23 11:53:41;;;;;;;8.03;1.60;;;21.40;77.50;;;;;;5054460;28;20222;-67
2023/12/23 11:56:08;;;;;;;6.70;1.57;;;21.40;77.80;;;;;;5058637;28;20222;-70
2023/12/23 11:58:36;;;;;;;9.07;2.10;;;21.40;77.70;;;;;;5055767;28;20183;-68
2023/12/23 12:01:04;;;;;;;5.33;1.60;;;21.40;77.60;;;;;;5051981;28;20677;-72
2023/12/23 12:03:31;;;;;;;6.20;1.60;;;21.40;77.70;;;;;;5035048;28;20267;-71
2023/12/23 12:05:59;;;;;;;7.03;1.73;;;21.40;77.70;;;;;;5054343;28;20184;-74
2023/12/23 12:08:27;;;;;;;10.13;1.30;;;21.40;77.80;;;;;;5055680;28;20182;-72
2023/12/23 12:10:57;;;;;;;4.00;1.37;;;21.40;77.90;;;;;;5044411;28;20583;-73
2023/12/23 12:13:51;;;;;;;5.30;1.30;;;21.40;78.00;;;;;;5061948;28;20183;-68
2023/12/23 12:16:18;;;;;;;7.50;1.20;;;21.40;78.00;;;;;;5057967;28;20232;-73
2023/12/23 12:18:48;;;;;;;8.97;1.40;;;21.40;78.00;;;;;;5049837;28;20187;-71
2023/12/23 12:21:15;;;;;;;5.17;1.30;;;21.40;77.90;;;;;;5058820;28;20171;-67
2023/12/23 12:23:43;;;;;;;10.20;1.40;;;21.40;78.00;;;;;;5057918;28;20280;-72
2023/12/23 12:26:11;;;;;;;5.70;1.70;;;21.30;78.00;;;;;;5063792;28;20521;-68
2023/12/23 12:28:38;;;;;;;5.97;1.30;;;21.40;78.10;;;;;;5046493;28;20176;-75
2023/12/23 12:31:14;;;;;;;6.47;1.73;;;21.40;78.20;;;;;;5043199;28;20615;-71
2023/12/23 12:33:42;;;;;;;8.50;1.57;;;21.40;78.10;;;;;;5050248;28;20183;-69
2023/12/23 12:36:15;;;;;;;7.03;1.30;;;21.40;78.20;;;;;;5051157;28;20208;-70
2023/12/23 12:38:43;;;;;;;6.03;1.40;;;21.40;78.30;;;;;;5045173;28;20172;-74
2023/12/23 12:41:12;;;;;;;5.80;1.40;;;21.40;78.30;;;;;;5046288;28;20228;-74
2023/12/23 12:43:42;;;;;;;9.87;1.30;;;21.40;78.40;;;;;;5040751;28;20207;-67
2023/12/23 12:46:09;;;;;;;7.80;1.30;;;21.40;78.40;;;;;;5043449;28;20533;-74
2023/12/23 12:48:37;;;;;;;7.03;1.37;;;21.30;78.50;;;;;;5042990;28;20192;-69
2023/12/23 12:51:06;;;;;;;6.50;1.70;;;21.30;78.50;;;;;;5051590;28;20678;-67